KVCT - Victoria Rgnl, TX, US

Issued at 0538 UTC 13 Aug 2022
Updated at 0920 UTC 13 Aug 2022
Potential Impact None Slight Moderate High
Time0851Z 13/10Z 13/11Z 13/12Z 13/13Z 13/14Z 13/15Z 13/16Z 13/17Z 13/18Z 13/19Z 13/20Z 13/21Z 13/22Z>>
Type OBS PRVL PRVL PRVL PRVL PRVL PRVL PRVL PRVL PRVL
  [TEMP]  
PRVL
  [TEMP]  
PRVL
  [TEMP]  
PRVL
  [TEMP]  
PRVL
VIS 7 >6 >6 >6 >6 >6 >6 >6 >6 >6
  [2]  
>6
  [2]  
>6
  [2]  
>6
  [2]  
>6
CIG -- 35 35 35 35 35 35 30 30 30
  [30]  
30
  [30]  
30
  [30]  
30
  [30]  
30
Cover CLR BKN BKN BKN BKN BKN BKN OVC OVC OVC
  [OVC]  
OVC
  [OVC]  
OVC
  [OVC]  
OVC
  [OVC]  
OVC
FltCat VFR VFR VFR VFR VFR VFR VFR MVFR MVFR MVFR
  [IFR]  
MVFR
  [IFR]  
MVFR
  [IFR]  
MVFR
  [IFR]  
MVFR
WX -- VCSH VCSH VCSH VCSH VCSH VCSH VCTS VCTS VCTS
  [TSRA]  
VCTS
  [TSRA]  
VCTS
  [TSRA]  
VCTS
  [TSRA]  
VCTS
WDir VRB 360 360 360 360 360 360 30 30 30
[VRB]
30
[VRB]
30
[VRB]
30
[VRB]
30
WSpd 0 5 5 5 5 5 5 8 8 8
  [20]  
8
  [20]  
8
  [20]  
8
  [20]  
8
WGst -- -- -- -- -- -- -- -- -- --
  [30]  
--
  [30]  
--
  [30]  
--
  [30]  
--
WSHgt -- -- -- -- -- -- -- -- -- --
[--]
--
[--]
--
[--]
--
[--]
--
WSDir -- -- -- -- -- -- -- -- -- --
[--]
--
[--]
--
[--]
--
[--]
--
WSSpd -- -- -- -- -- -- -- -- -- --
[--]
--
[--]
--
[--]
--
[--]
--
Raw TAF
KVCT 130538Z 1306/1406 VRB02KT P6SM SCT250
  FM131000 36005KT P6SM VCSH SCT020 BKN035
  FM131600 03008KT P6SM VCTS OVC030CB
  TEMPO 1318/1322 VRB20G30KT 2SM TSRA OVC030CB
  FM132300 09012KT P6SM SCT040 BKN200
  FM140200 16008KT P6SM VCSH OVC025
  TEMPO 1405/1406 2SM SHRA OVC015


Raw METAR
KVCT 130851Z AUTO 00000KT 7SM CLR 23/23 A2995 RMK AO2 SLP141 T02330233 55002
KVCT 130751Z AUTO 00000KT 6SM BR CLR 23/23 A2995 RMK AO2 SLP141 T02330233
KVCT 130651Z AUTO 33003KT 5SM BR CLR 24/23 A2996 RMK AO2 SLP141 T02390233

METAR Board
Radar Display
Forecast Discussion
For situational awareness. Not to be used for flight planning purposes.